sensor_id;sensor_type;location;lat;lon;timestamp;temperature;humidity
5346;DHT22;2695;49.444;11.054;2022-08-01T00:01:43;23.10;72.90
5346;DHT22;2695;49.444;11.054;2022-08-01T00:04:11;23.10;73.10
5346;DHT22;2695;49.444;11.054;2022-08-01T00:06:40;23.10;73.20
5346;DHT22;2695;49.444;11.054;2022-08-01T00:09:08;23.00;73.40
5346;DHT22;2695;49.444;11.054;2022-08-01T00:11:49;23.00;74.80
5346;DHT22;2695;49.444;11.054;2022-08-01T00:14:32;23.00;74.20
5346;DHT22;2695;49.444;11.054;2022-08-01T00:17:00;23.00;74.80
5346;DHT22;2695;49.444;11.054;2022-08-01T00:19:33;23.00;75.30
5346;DHT22;2695;49.444;11.054;2022-08-01T00:22:02;22.90;75.60
5346;DHT22;2695;49.444;11.054;2022-08-01T00:24:30;22.90;76.30
5346;DHT22;2695;49.444;11.054;2022-08-01T00:26:58;22.80;76.70
5346;DHT22;2695;49.444;11.054;2022-08-01T00:29:26;22.80;77.30
5346;DHT22;2695;49.444;11.054;2022-08-01T00:32:14;22.70;77.90
5346;DHT22;2695;49.444;11.054;2022-08-01T00:34:42;22.70;78.50
5346;DHT22;2695;49.444;11.054;2022-08-01T00:37:11;22.70;79.00
5346;DHT22;2695;49.444;11.054;2022-08-01T00:39:42;22.70;79.30
5346;DHT22;2695;49.444;11.054;2022-08-01T00:42:11;22.60;79.40
5346;DHT22;2695;49.444;11.054;2022-08-01T00:44:40;22.60;80.00
5346;DHT22;2695;49.444;11.054;2022-08-01T00:47:08;22.60;80.70
5346;DHT22;2695;49.444;11.054;2022-08-01T00:49:36;22.50;81.20
5346;DHT22;2695;49.444;11.054;2022-08-01T00:52:05;22.50;81.90
5346;DHT22;2695;49.444;11.054;2022-08-01T00:54:35;22.40;82.40
5346;DHT22;2695;49.444;11.054;2022-08-01T00:57:03;22.40;83.10
5346;DHT22;2695;49.444;11.054;2022-08-01T00:59:36;22.40;83.50
5346;DHT22;2695;49.444;11.054;2022-08-01T01:02:06;22.40;84.00
5346;DHT22;2695;49.444;11.054;2022-08-01T01:04:41;22.30;85.00
5346;DHT22;2695;49.444;11.054;2022-08-01T01:07:14;22.30;85.30
5346;DHT22;2695;49.444;11.054;2022-08-01T01:09:50;22.30;85.90
5346;DHT22;2695;49.444;11.054;2022-08-01T01:12:24;22.20;86.40
5346;DHT22;2695;49.444;11.054;2022-08-01T01:15:06;22.20;86.80
5346;DHT22;2695;49.444;11.054;2022-08-01T01:17:39;22.20;87.40
5346;DHT22;2695;49.444;11.054;2022-08-01T01:20:18;22.20;87.80
5346;DHT22;2695;49.444;11.054;2022-08-01T01:22:57;22.20;88.10
5346;DHT22;2695;49.444;11.054;2022-08-01T01:25:41;22.20;88.20
5346;DHT22;2695;49.444;11.054;2022-08-01T01:31:02;22.10;89.60
5346;DHT22;2695;49.444;11.054;2022-08-01T01:33:32;22.10;90.10
5346;DHT22;2695;49.444;11.054;2022-08-01T01:36:11;22.00;90.30
5346;DHT22;2695;49.444;11.054;2022-08-01T01:38:42;22.00;90.30
5346;DHT22;2695;49.444;11.054;2022-08-01T01:41:13;22.00;90.60
5346;DHT22;2695;49.444;11.054;2022-08-01T01:43:42;22.00;90.90
5346;DHT22;2695;49.444;11.054;2022-08-01T01:46:15;21.90;91.10
5346;DHT22;2695;49.444;11.054;2022-08-01T01:48:45;22.00;91.40
5346;DHT22;2695;49.444;11.054;2022-08-01T01:51:15;22.00;91.60
5346;DHT22;2695;49.444;11.054;2022-08-01T01:53:44;22.00;91.70
5346;DHT22;2695;49.444;11.054;2022-08-01T01:56:14;22.00;91.70
5346;DHT22;2695;49.444;11.054;2022-08-01T01:58:44;22.30;91.70
5346;DHT22;2695;49.444;11.054;2022-08-01T02:01:15;22.20;91.40
5346;DHT22;2695;49.444;11.054;2022-08-01T02:04:04;22.20;91.50
5346;DHT22;2695;49.444;11.054;2022-08-01T02:06:32;22.40;91.70
5346;DHT22;2695;49.444;11.054;2022-08-01T02:09:02;22.20;91.70
5346;DHT22;2695;49.444;11.054;2022-08-01T02:11:31;22.20;91.70
5346;DHT22;2695;49.444;11.054;2022-08-01T02:14:01;21.90;91.50
5346;DHT22;2695;49.444;11.054;2022-08-01T02:16:34;22.90;92.00
5346;DHT22;2695;49.444;11.054;2022-08-01T02:19:03;22.30;91.80
5346;DHT22;2695;49.444;11.054;2022-08-01T02:21:37;22.30;91.80
5346;DHT22;2695;49.444;11.054;2022-08-01T02:24:10;22.40;91.90
5346;DHT22;2695;49.444;11.054;2022-08-01T02:26:44;22.30;91.90
5346;DHT22;2695;49.444;11.054;2022-08-01T02:29:18;22.50;92.10
5346;DHT22;2695;49.444;11.054;2022-08-01T02:31:51;22.60;92.20
5346;DHT22;2695;49.444;11.054;2022-08-01T02:34:22;22.50;92.20
5346;DHT22;2695;49.444;11.054;2022-08-01T02:36:54;22.30;92.20
5346;DHT22;2695;49.444;11.054;2022-08-01T02:39:24;22.30;92.40
5346;DHT22;2695;49.444;11.054;2022-08-01T02:41:58;22.30;92.50
5346;DHT22;2695;49.444;11.054;2022-08-01T02:44:30;22.30;92.70
5346;DHT22;2695;49.444;11.054;2022-08-01T02:47:01;22.20;92.90
5346;DHT22;2695;49.444;11.054;2022-08-01T02:49:31;22.10;93.10
5346;DHT22;2695;49.444;11.054;2022-08-01T02:52:04;22.20;93.50
5346;DHT22;2695;49.444;11.054;2022-08-01T02:54:34;22.00;93.70
5346;DHT22;2695;49.444;11.054;2022-08-01T02:57:06;21.90;94.00
5346;DHT22;2695;49.444;11.054;2022-08-01T02:59:39;21.90;94.30
5346;DHT22;2695;49.444;11.054;2022-08-01T03:02:10;21.80;94.60
5346;DHT22;2695;49.444;11.054;2022-08-01T03:04:39;21.80;94.90
5346;DHT22;2695;49.444;11.054;2022-08-01T03:07:09;21.80;95.10
5346;DHT22;2695;49.444;11.054;2022-08-01T03:09:40;21.80;95.40
5346;DHT22;2695;49.444;11.054;2022-08-01T03:12:13;21.70;95.70
5346;DHT22;2695;49.444;11.054;2022-08-01T03:14:43;22.10;96.10
5346;DHT22;2695;49.444;11.054;2022-08-01T03:17:15;21.70;96.20
5346;DHT22;2695;49.444;11.054;2022-08-01T03:19:45;21.70;96.60
5346;DHT22;2695;49.444;11.054;2022-08-01T03:22:15;21.60;96.80
5346;DHT22;2695;49.444;11.054;2022-08-01T03:24:46;21.60;97.00
5346;DHT22;2695;49.444;11.054;2022-08-01T03:27:18;21.60;97.30
5346;DHT22;2695;49.444;11.054;2022-08-01T03:29:48;21.30;97.40
5346;DHT22;2695;49.444;11.054;2022-08-01T03:32:20;21.40;97.70
5346;DHT22;2695;49.444;11.054;2022-08-01T03:34:49;21.60;98.00
5346;DHT22;2695;49.444;11.054;2022-08-01T03:37:23;21.60;98.10
5346;DHT22;2695;49.444;11.054;2022-08-01T03:39:58;21.60;98.40
5346;DHT22;2695;49.444;11.054;2022-08-01T03:42:31;21.60;98.60
5346;DHT22;2695;49.444;11.054;2022-08-01T03:45:04;21.60;98.90
5346;DHT22;2695;49.444;11.054;2022-08-01T03:50:56;21.60;99.40
5346;DHT22;2695;49.444;11.054;2022-08-01T03:53:29;21.50;99.90
5346;DHT22;2695;49.444;11.054;2022-08-01T03:56:00;21.60;99.90
5346;DHT22;2695;49.444;11.054;2022-08-01T03:58:29;21.40;99.90
5346;DHT22;2695;49.444;11.054;2022-08-01T04:00:58;21.40;99.90
5346;DHT22;2695;49.444;11.054;2022-08-01T04:03:27;21.40;99.90
5346;DHT22;2695;49.444;11.054;2022-08-01T04:05:57;21.40;99.90
5346;DHT22;2695;49.444;11.054;2022-08-01T04:08:34;21.50;99.90
5346;DHT22;2695;49.444;11.054;2022-08-01T04:11:03;21.70;99.90
5346;DHT22;2695;49.444;11.054;2022-08-01T04:13:32;22.10;99.90
5346;DHT22;2695;49.444;11.054;2022-08-01T04:16:03;22.60;99.90
5346;DHT22;2695;49.444;11.054;2022-08-01T04:18:31;23.10;98.90
5346;DHT22;2695;49.444;11.054;2022-08-01T04:21:01;23.70;97.60
5346;DHT22;2695;49.444;11.054;2022-08-01T04:23:30;24.30;96.00
5346;DHT22;2695;49.444;11.054;2022-08-01T04:26:00;24.60;94.90
5346;DHT22;2695;49.444;11.054;2022-08-01T04:28:32;24.20;94.70
5346;DHT22;2695;49.444;11.054;2022-08-01T04:31:07;24.10;95.30
5346;DHT22;2695;49.444;11.054;2022-08-01T04:33:39;23.80;96.30
5346;DHT22;2695;49.444;11.054;2022-08-01T04:36:11;23.60;96.50
5346;DHT22;2695;49.444;11.054;2022-08-01T04:38:42;23.40;96.90
5346;DHT22;2695;49.444;11.054;2022-08-01T04:41:13;23.20;97.30
5346;DHT22;2695;49.444;11.054;2022-08-01T04:43:42;23.20;97.50
5346;DHT22;2695;49.444;11.054;2022-08-01T04:46:10;23.40;97.60
5346;DHT22;2695;49.444;11.054;2022-08-01T04:48:40;23.20;97.60
5346;DHT22;2695;49.444;11.054;2022-08-01T04:51:14;23.20;97.80
5346;DHT22;2695;49.444;11.054;2022-08-01T04:53:43;23.10;98.20
5346;DHT22;2695;49.444;11.054;2022-08-01T04:56:15;23.30;98.10
5346;DHT22;2695;49.444;11.054;2022-08-01T04:58:44;23.10;98.10
5346;DHT22;2695;49.444;11.054;2022-08-01T05:01:13;23.10;98.30
5346;DHT22;2695;49.444;11.054;2022-08-01T05:03:41;23.10;98.40
5346;DHT22;2695;49.444;11.054;2022-08-01T05:06:10;23.10;98.50
5346;DHT22;2695;49.444;11.054;2022-08-01T05:08:40;23.10;98.40
5346;DHT22;2695;49.444;11.054;2022-08-01T05:11:09;23.20;98.50
5346;DHT22;2695;49.444;11.054;2022-08-01T05:13:38;23.20;98.40
5346;DHT22;2695;49.444;11.054;2022-08-01T05:16:07;23.60;98.70
5346;DHT22;2695;49.444;11.054;2022-08-01T05:18:35;23.50;98.70
5346;DHT22;2695;49.444;11.054;2022-08-01T05:21:04;23.20;98.60
5346;DHT22;2695;49.444;11.054;2022-08-01T05:23:33;23.30;98.70
5346;DHT22;2695;49.444;11.054;2022-08-01T05:26:09;23.30;98.80
5346;DHT22;2695;49.444;11.054;2022-08-01T05:28:40;23.40;98.80
5346;DHT22;2695;49.444;11.054;2022-08-01T05:31:08;23.50;98.70
5346;DHT22;2695;49.444;11.054;2022-08-01T05:33:37;23.90;98.40
5346;DHT22;2695;49.444;11.054;2022-08-01T05:36:05;24.10;97.90
5346;DHT22;2695;49.444;11.054;2022-08-01T05:38:33;24.20;97.70
5346;DHT22;2695;49.444;11.054;2022-08-01T05:41:02;24.30;97.60
5346;DHT22;2695;49.444;11.054;2022-08-01T05:43:32;24.40;97.60
5346;DHT22;2695;49.444;11.054;2022-08-01T05:46:01;24.40;97.40
5346;DHT22;2695;49.444;11.054;2022-08-01T05:48:35;24.50;97.50
5346;DHT22;2695;49.444;11.054;2022-08-01T05:51:03;24.40;97.50
5346;DHT22;2695;49.444;11.054;2022-08-01T05:53:32;24.60;97.50
5346;DHT22;2695;49.444;11.054;2022-08-01T05:56:01;24.80;97.10
5346;DHT22;2695;49.444;11.054;2022-08-01T05:58:29;25.10;96.50
5346;DHT22;2695;49.444;11.054;2022-08-01T06:00:59;25.20;96.30
5346;DHT22;2695;49.444;11.054;2022-08-01T06:03:28;25.40;96.00
5346;DHT22;2695;49.444;11.054;2022-08-01T06:05:58;25.20;95.80
5346;DHT22;2695;49.444;11.054;2022-08-01T06:08:26;25.30;95.90
5346;DHT22;2695;49.444;11.054;2022-08-01T06:10:55;25.20;95.60
5346;DHT22;2695;49.444;11.054;2022-08-01T06:13:23;25.50;95.60
5346;DHT22;2695;49.444;11.054;2022-08-01T06:15:51;25.80;95.40
5346;DHT22;2695;49.444;11.054;2022-08-01T06:18:21;26.10;94.60
5346;DHT22;2695;49.444;11.054;2022-08-01T06:20:49;26.30;94.30
5346;DHT22;2695;49.444;11.054;2022-08-01T06:23:21;26.60;93.60
5346;DHT22;2695;49.444;11.054;2022-08-01T06:25:58;27.30;92.70
5346;DHT22;2695;49.444;11.054;2022-08-01T06:28:27;28.20;91.30
5346;DHT22;2695;49.444;11.054;2022-08-01T06:30:55;28.20;90.40
5346;DHT22;2695;49.444;11.054;2022-08-01T06:33:26;28.60;89.80
5346;DHT22;2695;49.444;11.054;2022-08-01T06:35:55;29.30;86.30
5346;DHT22;2695;49.444;11.054;2022-08-01T06:38:23;29.80;83.00
5346;DHT22;2695;49.444;11.054;2022-08-01T06:40:53;29.60;82.60
5346;DHT22;2695;49.444;11.054;2022-08-01T06:43:21;29.30;82.20
5346;DHT22;2695;49.444;11.054;2022-08-01T06:45:49;29.00;83.00
5346;DHT22;2695;49.444;11.054;2022-08-01T06:48:17;28.80;83.60
5346;DHT22;2695;49.444;11.054;2022-08-01T06:50:49;28.70;84.60
5346;DHT22;2695;49.444;11.054;2022-08-01T06:53:35;28.20;85.70
5346;DHT22;2695;49.444;11.054;2022-08-01T06:56:04;27.90;86.50
5346;DHT22;2695;49.444;11.054;2022-08-01T06:58:33;27.70;86.90
5346;DHT22;2695;49.444;11.054;2022-08-01T07:01:02;27.40;88.60
5346;DHT22;2695;49.444;11.054;2022-08-01T07:03:33;27.20;89.80
5346;DHT22;2695;49.444;11.054;2022-08-01T07:06:22;27.10;89.60
5346;DHT22;2695;49.444;11.054;2022-08-01T07:08:51;27.00;89.90
5346;DHT22;2695;49.444;11.054;2022-08-01T07:11:20;27.00;90.00
5346;DHT22;2695;49.444;11.054;2022-08-01T07:13:48;26.50;90.10
5346;DHT22;2695;49.444;11.054;2022-08-01T07:16:17;27.40;90.00
5346;DHT22;2695;49.444;11.054;2022-08-01T07:18:45;27.10;89.60
5346;DHT22;2695;49.444;11.054;2022-08-01T07:21:13;27.10;89.80
5346;DHT22;2695;49.444;11.054;2022-08-01T07:24:03;27.20;90.10
5346;DHT22;2695;49.444;11.054;2022-08-01T07:26:40;27.30;89.60
5346;DHT22;2695;49.444;11.054;2022-08-01T07:29:20;27.70;88.80
5346;DHT22;2695;49.444;11.054;2022-08-01T07:31:48;28.30;87.20
5346;DHT22;2695;49.444;11.054;2022-08-01T07:34:16;28.80;84.50
5346;DHT22;2695;49.444;11.054;2022-08-01T07:36:45;29.40;82.30
5346;DHT22;2695;49.444;11.054;2022-08-01T07:39:14;30.10;79.60
5346;DHT22;2695;49.444;11.054;2022-08-01T07:41:43;30.40;78.20
5346;DHT22;2695;49.444;11.054;2022-08-01T07:44:31;31.10;75.90
5346;DHT22;2695;49.444;11.054;2022-08-01T07:46:59;32.20;71.70
5346;DHT22;2695;49.444;11.054;2022-08-01T07:49:27;33.50;67.00
5346;DHT22;2695;49.444;11.054;2022-08-01T07:51:56;34.90;61.00
5346;DHT22;2695;49.444;11.054;2022-08-01T07:54:31;36.30;56.50
5346;DHT22;2695;49.444;11.054;2022-08-01T07:57:01;37.40;51.60
5346;DHT22;2695;49.444;11.054;2022-08-01T07:59:29;37.40;49.80
5346;DHT22;2695;49.444;11.054;2022-08-01T08:01:57;36.90;50.10
5346;DHT22;2695;49.444;11.054;2022-08-01T08:04:26;36.30;50.50
5346;DHT22;2695;49.444;11.054;2022-08-01T08:06:57;36.00;50.80
5346;DHT22;2695;49.444;11.054;2022-08-01T08:09:41;36.20;50.40
5346;DHT22;2695;49.444;11.054;2022-08-01T08:12:17;36.70;49.10
5346;DHT22;2695;49.444;11.054;2022-08-01T08:14:55;36.80;48.10
5346;DHT22;2695;49.444;11.054;2022-08-01T08:17:25;36.40;48.30
5346;DHT22;2695;49.444;11.054;2022-08-01T08:19:53;35.60;49.80
5346;DHT22;2695;49.444;11.054;2022-08-01T08:22:21;35.40;50.10
5346;DHT22;2695;49.444;11.054;2022-08-01T08:24:50;34.90;51.50
5346;DHT22;2695;49.444;11.054;2022-08-01T08:27:19;35.10;50.70
5346;DHT22;2695;49.444;11.054;2022-08-01T08:29:47;35.70;50.40
5346;DHT22;2695;49.444;11.054;2022-08-01T08:32:14;36.70;48.60
5346;DHT22;2695;49.444;11.054;2022-08-01T08:34:42;37.40;46.50
5346;DHT22;2695;49.444;11.054;2022-08-01T08:37:10;37.20;45.90
5346;DHT22;2695;49.444;11.054;2022-08-01T08:39:39;37.20;46.00
5346;DHT22;2695;49.444;11.054;2022-08-01T08:42:10;36.70;46.70
5346;DHT22;2695;49.444;11.054;2022-08-01T08:44:41;36.20;48.00
5346;DHT22;2695;49.444;11.054;2022-08-01T08:47:11;37.00;46.00
5346;DHT22;2695;49.444;11.054;2022-08-01T08:49:48;36.80;46.00
5346;DHT22;2695;49.444;11.054;2022-08-01T08:52:19;35.80;46.60
5346;DHT22;2695;49.444;11.054;2022-08-01T08:54:49;34.70;49.00
5346;DHT22;2695;49.444;11.054;2022-08-01T08:57:20;33.70;50.50
5346;DHT22;2695;49.444;11.054;2022-08-01T08:59:49;32.80;52.30
5346;DHT22;2695;49.444;11.054;2022-08-01T09:02:20;32.10;53.80
5346;DHT22;2695;49.444;11.054;2022-08-01T09:04:49;31.80;54.80
5346;DHT22;2695;49.444;11.054;2022-08-01T09:07:17;32.10;54.60
5346;DHT22;2695;49.444;11.054;2022-08-01T09:09:46;32.30;54.10
5346;DHT22;2695;49.444;11.054;2022-08-01T09:12:19;32.50;54.60
5346;DHT22;2695;49.444;11.054;2022-08-01T09:14:48;33.70;52.00
5346;DHT22;2695;49.444;11.054;2022-08-01T09:17:20;34.40;50.80
5346;DHT22;2695;49.444;11.054;2022-08-01T09:19:50;34.30;50.50
5346;DHT22;2695;49.444;11.054;2022-08-01T09:22:22;33.80;50.80
5346;DHT22;2695;49.444;11.054;2022-08-01T09:24:59;33.00;51.80
5346;DHT22;2695;49.444;11.054;2022-08-01T09:27:29;32.40;53.10
5346;DHT22;2695;49.444;11.054;2022-08-01T09:30:10;32.00;54.00
5346;DHT22;2695;49.444;11.054;2022-08-01T09:32:57;31.80;54.90
5346;DHT22;2695;49.444;11.054;2022-08-01T09:35:29;31.80;55.00
5346;DHT22;2695;49.444;11.054;2022-08-01T09:38:17;32.40;54.60
5346;DHT22;2695;49.444;11.054;2022-08-01T09:40:51;33.90;50.80
5346;DHT22;2695;49.444;11.054;2022-08-01T09:43:24;33.90;50.30
5346;DHT22;2695;49.444;11.054;2022-08-01T09:45:52;33.50;51.40
5346;DHT22;2695;49.444;11.054;2022-08-01T09:48:23;32.60;52.50
5346;DHT22;2695;49.444;11.054;2022-08-01T09:50:56;32.00;54.10
5346;DHT22;2695;49.444;11.054;2022-08-01T09:53:44;32.20;54.50
5346;DHT22;2695;49.444;11.054;2022-08-01T09:56:36;32.80;52.70
5346;DHT22;2695;49.444;11.054;2022-08-01T09:59:06;32.80;53.60
5346;DHT22;2695;49.444;11.054;2022-08-01T10:01:45;34.40;50.30
5346;DHT22;2695;49.444;11.054;2022-08-01T10:04:15;35.70;46.90
5346;DHT22;2695;49.444;11.054;2022-08-01T10:06:45;36.60;45.00
5346;DHT22;2695;49.444;11.054;2022-08-01T10:09:27;36.40;44.70
5346;DHT22;2695;49.444;11.054;2022-08-01T10:12:07;35.40;46.20
5346;DHT22;2695;49.444;11.054;2022-08-01T10:14:43;34.50;47.70
5346;DHT22;2695;49.444;11.054;2022-08-01T10:17:17;34.80;46.80
5346;DHT22;2695;49.444;11.054;2022-08-01T10:19:46;34.80;46.10
5346;DHT22;2695;49.444;11.054;2022-08-01T10:22:18;35.50;44.70
5346;DHT22;2695;49.444;11.054;2022-08-01T10:24:54;36.40;43.40
5346;DHT22;2695;49.444;11.054;2022-08-01T10:27:23;36.30;43.30
5346;DHT22;2695;49.444;11.054;2022-08-01T10:30:08;35.40;45.20
5346;DHT22;2695;49.444;11.054;2022-08-01T10:32:49;34.60;46.20
5346;DHT22;2695;49.444;11.054;2022-08-01T10:35:21;33.90;47.70
5346;DHT22;2695;49.444;11.054;2022-08-01T10:38:10;33.70;48.20
5346;DHT22;2695;49.444;11.054;2022-08-01T10:40:40;34.40;46.70
5346;DHT22;2695;49.444;11.054;2022-08-01T10:43:13;34.70;46.50
5346;DHT22;2695;49.444;11.054;2022-08-01T10:45:49;35.80;44.90
5346;DHT22;2695;49.444;11.054;2022-08-01T10:48:24;37.00;43.00
5346;DHT22;2695;49.444;11.054;2022-08-01T10:50:59;37.80;40.40
5346;DHT22;2695;49.444;11.054;2022-08-01T10:53:28;37.80;40.30
5346;DHT22;2695;49.444;11.054;2022-08-01T10:56:08;37.90;39.40
5346;DHT22;2695;49.444;11.054;2022-08-01T10:58:42;37.10;40.70
5346;DHT22;2695;49.444;11.054;2022-08-01T11:01:20;36.00;42.40
5346;DHT22;2695;49.444;11.054;2022-08-01T11:04:01;35.40;44.10
5346;DHT22;2695;49.444;11.054;2022-08-01T11:06:39;36.10;42.50
5346;DHT22;2695;49.444;11.054;2022-08-01T11:09:29;36.60;40.20
5346;DHT22;2695;49.444;11.054;2022-08-01T11:12:06;35.90;41.50
5346;DHT22;2695;49.444;11.054;2022-08-01T11:18:04;36.30;40.90
5346;DHT22;2695;49.444;11.054;2022-08-01T11:20:59;36.00;41.70
5346;DHT22;2695;49.444;11.054;2022-08-01T11:23:51;36.20;41.70
5346;DHT22;2695;49.444;11.054;2022-08-01T11:26:23;36.00;41.90
5346;DHT22;2695;49.444;11.054;2022-08-01T11:29:14;35.30;43.10
5346;DHT22;2695;49.444;11.054;2022-08-01T11:31:49;35.50;42.70
5346;DHT22;2695;49.444;11.054;2022-08-01T11:34:19;35.50;42.30
5346;DHT22;2695;49.444;11.054;2022-08-01T11:37:23;35.00;43.20
5346;DHT22;2695;49.444;11.054;2022-08-01T11:40:16;34.30;44.80
5346;DHT22;2695;49.444;11.054;2022-08-01T11:42:44;33.70;46.00
5346;DHT22;2695;49.444;11.054;2022-08-01T11:45:13;33.60;46.50
5346;DHT22;2695;49.444;11.054;2022-08-01T11:47:46;33.90;46.20
5346;DHT22;2695;49.444;11.054;2022-08-01T11:50:35;34.40;45.30
5346;DHT22;2695;49.444;11.054;2022-08-01T11:53:07;34.50;44.90
5346;DHT22;2695;49.444;11.054;2022-08-01T11:55:44;34.10;45.50
5346;DHT22;2695;49.444;11.054;2022-08-01T11:58:21;33.80;46.00
5346;DHT22;2695;49.444;11.054;2022-08-01T12:00:56;33.80;45.90
5346;DHT22;2695;49.444;11.054;2022-08-01T12:03:25;33.70;46.10
5346;DHT22;2695;49.444;11.054;2022-08-01T12:05:59;33.70;46.60
5346;DHT22;2695;49.444;11.054;2022-08-01T12:08:30;33.80;45.80
5346;DHT22;2695;49.444;11.054;2022-08-01T12:11:04;33.80;45.60
5346;DHT22;2695;49.444;11.054;2022-08-01T12:13:39;33.70;45.40
5346;DHT22;2695;49.444;11.054;2022-08-01T12:16:09;33.50;46.40
5346;DHT22;2695;49.444;11.054;2022-08-01T12:18:40;33.40;47.00
5346;DHT22;2695;49.444;11.054;2022-08-01T12:21:09;33.60;46.40
5346;DHT22;2695;49.444;11.054;2022-08-01T12:23:39;33.50;46.80
5346;DHT22;2695;49.444;11.054;2022-08-01T12:26:07;33.20;47.40
5346;DHT22;2695;49.444;11.054;2022-08-01T12:28:55;32.80;47.70
5346;DHT22;2695;49.444;11.054;2022-08-01T12:31:31;32.50;48.30
5346;DHT22;2695;49.444;11.054;2022-08-01T12:34:24;32.10;49.10
5346;DHT22;2695;49.444;11.054;2022-08-01T12:36:56;31.80;49.40
5346;DHT22;2695;49.444;11.054;2022-08-01T12:39:33;31.90;49.40
5346;DHT22;2695;49.444;11.054;2022-08-01T12:42:07;32.00;50.10
5346;DHT22;2695;49.444;11.054;2022-08-01T12:44:37;32.00;50.40
5346;DHT22;2695;49.444;11.054;2022-08-01T12:47:06;32.00;50.50
5346;DHT22;2695;49.444;11.054;2022-08-01T12:49:35;31.90;49.50
5346;DHT22;2695;49.444;11.054;2022-08-01T12:52:04;31.80;49.80
5346;DHT22;2695;49.444;11.054;2022-08-01T12:55:03;31.60;49.60
5346;DHT22;2695;49.444;11.054;2022-08-01T12:57:37;31.50;49.20
5346;DHT22;2695;49.444;11.054;2022-08-01T13:00:44;31.30;49.80
5346;DHT22;2695;49.444;11.054;2022-08-01T13:03:14;31.30;49.40
5346;DHT22;2695;49.444;11.054;2022-08-01T13:05:44;31.50;49.60
5346;DHT22;2695;49.444;11.054;2022-08-01T13:08:14;31.70;48.90
5346;DHT22;2695;49.444;11.054;2022-08-01T13:10:44;31.90;48.50
5346;DHT22;2695;49.444;11.054;2022-08-01T13:13:13;32.00;48.30
5346;DHT22;2695;49.444;11.054;2022-08-01T13:16:03;32.20;48.10
5346;DHT22;2695;49.444;11.054;2022-08-01T13:18:33;32.30;47.80
5346;DHT22;2695;49.444;11.054;2022-08-01T13:21:09;32.30;49.00
5346;DHT22;2695;49.444;11.054;2022-08-01T13:23:38;32.40;49.30
5346;DHT22;2695;49.444;11.054;2022-08-01T13:26:46;32.40;50.10
5346;DHT22;2695;49.444;11.054;2022-08-01T13:29:29;32.40;50.30
5346;DHT22;2695;49.444;11.054;2022-08-01T13:31:58;32.40;49.70
5346;DHT22;2695;49.444;11.054;2022-08-01T13:34:30;32.40;49.70
5346;DHT22;2695;49.444;11.054;2022-08-01T13:36:58;32.40;49.80
5346;DHT22;2695;49.444;11.054;2022-08-01T13:39:28;32.40;49.90
5346;DHT22;2695;49.444;11.054;2022-08-01T13:42:11;32.50;49.80
5346;DHT22;2695;49.444;11.054;2022-08-01T13:44:45;32.50;50.60
5346;DHT22;2695;49.444;11.054;2022-08-01T13:47:13;32.40;49.60
5346;DHT22;2695;49.444;11.054;2022-08-01T13:49:43;32.30;49.60
5346;DHT22;2695;49.444;11.054;2022-08-01T13:52:12;32.30;49.60
5346;DHT22;2695;49.444;11.054;2022-08-01T13:54:40;32.30;49.50
5346;DHT22;2695;49.444;11.054;2022-08-01T13:57:09;32.40;49.90
5346;DHT22;2695;49.444;11.054;2022-08-01T13:59:37;32.30;50.30
5346;DHT22;2695;49.444;11.054;2022-08-01T14:02:05;32.30;50.10
5346;DHT22;2695;49.444;11.054;2022-08-01T14:04:35;32.30;49.60
5346;DHT22;2695;49.444;11.054;2022-08-01T14:07:03;32.40;49.70
5346;DHT22;2695;49.444;11.054;2022-08-01T14:09:36;32.50;49.80
5346;DHT22;2695;49.444;11.054;2022-08-01T14:12:25;32.50;48.80
5346;DHT22;2695;49.444;11.054;2022-08-01T14:14:53;32.50;47.20
5346;DHT22;2695;49.444;11.054;2022-08-01T14:17:21;32.40;47.40
5346;DHT22;2695;49.444;11.054;2022-08-01T14:19:49;32.40;47.20
5346;DHT22;2695;49.444;11.054;2022-08-01T14:22:17;32.50;47.50
5346;DHT22;2695;49.444;11.054;2022-08-01T14:24:45;32.60;47.20
5346;DHT22;2695;49.444;11.054;2022-08-01T14:27:14;32.60;47.10
5346;DHT22;2695;49.444;11.054;2022-08-01T14:29:43;32.60;47.10
5346;DHT22;2695;49.444;11.054;2022-08-01T14:32:29;32.50;47.30
5346;DHT22;2695;49.444;11.054;2022-08-01T14:34:56;32.40;47.70
5346;DHT22;2695;49.444;11.054;2022-08-01T14:37:24;32.20;48.00
5346;DHT22;2695;49.444;11.054;2022-08-01T14:39:55;32.20;47.90
5346;DHT22;2695;49.444;11.054;2022-08-01T14:42:24;32.20;48.00
5346;DHT22;2695;49.444;11.054;2022-08-01T14:44:57;32.10;48.30
5346;DHT22;2695;49.444;11.054;2022-08-01T14:47:27;32.00;48.00
5346;DHT22;2695;49.444;11.054;2022-08-01T14:49:55;32.00;48.40
5346;DHT22;2695;49.444;11.054;2022-08-01T14:52:23;32.00;48.30
5346;DHT22;2695;49.444;11.054;2022-08-01T14:54:51;32.00;48.20
5346;DHT22;2695;49.444;11.054;2022-08-01T14:57:19;31.90;47.70
5346;DHT22;2695;49.444;11.054;2022-08-01T14:59:47;31.90;47.50
5346;DHT22;2695;49.444;11.054;2022-08-01T15:02:16;31.90;47.30
5346;DHT22;2695;49.444;11.054;2022-08-01T15:04:45;31.90;47.70
5346;DHT22;2695;49.444;11.054;2022-08-01T15:07:14;31.90;47.90
5346;DHT22;2695;49.444;11.054;2022-08-01T15:09:43;31.90;47.60
5346;DHT22;2695;49.444;11.054;2022-08-01T15:12:12;31.90;47.70
5346;DHT22;2695;49.444;11.054;2022-08-01T15:14:40;31.90;47.60
5346;DHT22;2695;49.444;11.054;2022-08-01T15:17:20;31.90;47.60
5346;DHT22;2695;49.444;11.054;2022-08-01T15:19:50;32.00;47.70
5346;DHT22;2695;49.444;11.054;2022-08-01T15:22:19;32.00;47.20
5346;DHT22;2695;49.444;11.054;2022-08-01T15:24:51;31.90;47.00
5346;DHT22;2695;49.444;11.054;2022-08-01T15:27:23;31.80;47.50
5346;DHT22;2695;49.444;11.054;2022-08-01T15:29:52;31.60;48.00
5346;DHT22;2695;49.444;11.054;2022-08-01T15:32:22;31.50;48.30
5346;DHT22;2695;49.444;11.054;2022-08-01T15:34:51;31.20;48.30
5346;DHT22;2695;49.444;11.054;2022-08-01T15:37:20;30.90;49.10
5346;DHT22;2695;49.444;11.054;2022-08-01T15:39:48;30.80;49.70
5346;DHT22;2695;49.444;11.054;2022-08-01T15:42:22;30.70;50.30
5346;DHT22;2695;49.444;11.054;2022-08-01T15:44:53;30.40;50.30
5346;DHT22;2695;49.444;11.054;2022-08-01T15:47:22;30.30;50.10
5346;DHT22;2695;49.444;11.054;2022-08-01T15:49:51;30.20;50.20
5346;DHT22;2695;49.444;11.054;2022-08-01T15:52:19;30.00;49.80
5346;DHT22;2695;49.444;11.054;2022-08-01T15:54:48;29.90;49.80
5346;DHT22;2695;49.444;11.054;2022-08-01T15:57:16;29.90;49.90
5346;DHT22;2695;49.444;11.054;2022-08-01T15:59:44;29.90;50.10
5346;DHT22;2695;49.444;11.054;2022-08-01T16:02:13;29.80;50.60
5346;DHT22;2695;49.444;11.054;2022-08-01T16:04:42;29.70;51.70
5346;DHT22;2695;49.444;11.054;2022-08-01T16:07:11;29.60;52.70
5346;DHT22;2695;49.444;11.054;2022-08-01T16:09:39;29.50;53.10
5346;DHT22;2695;49.444;11.054;2022-08-01T16:12:07;29.60;53.30
5346;DHT22;2695;49.444;11.054;2022-08-01T16:14:36;29.60;53.60
5346;DHT22;2695;49.444;11.054;2022-08-01T16:17:04;29.70;53.30
5346;DHT22;2695;49.444;11.054;2022-08-01T16:19:33;29.70;52.20
5346;DHT22;2695;49.444;11.054;2022-08-01T16:22:02;29.70;53.10
5346;DHT22;2695;49.444;11.054;2022-08-01T16:24:30;29.60;54.20
5346;DHT22;2695;49.444;11.054;2022-08-01T16:26:58;29.50;54.80